New Orleans, LA (70114)

7:27 PM CDT on August 04, 2015 (GMT -0500)
Gulf Coast Special Systems | | Change Station
CLOSE
Current Station
Personal Weather Station
Location: Gretna, LA
Elevation: 25 ft
Nearby Weather Stations

Elev 25 ft 29.91 °N, 90.05 °W | Updated 2 minutes ago

Overcast
Overcast
83.5 °F
Feels Like 96 °F
N
1.0
Wind Variable Wind from SSW
Gusts 3.0 mph

Today
High -- | Low -- °F
--% Chance of Precip.
Yesterday
High -- | Low -- °F
Precip. -- in
6:20 AM 7:51 PM
Waning Gibbous, 73% visible
Pressure 29.94 in
Visibility 10.0 miles
Clouds Few 2500 ft
Scattered Clouds 15000 ft
Mostly Cloudy 25000 ft
Heat Index 96 °F
Dew Point 80 °F
Humidity 90%
Rainfall 0.56 in
Snow Depth Not available.
UV 0 out of 12
Pollen 3.10 out of 12
Air Quality Not available.
Flu Activity Not available.
METAR KNBG 042355Z 21009KT 10SM FEW025TCU SCT150 BKN250 30/26 A2993 RMK AO2 SLP136 TCU VC N CB DSNT E AND SW-W VCSH N T2 SET 60001 T03000261 10306 20267 58002 $

More Conditions Fewer Conditions

Pressure 29.94 in
Visibility 10.0 miles
Clouds Few 2500 ft
Scattered Clouds 15000 ft
Mostly Cloudy 25000 ft
Heat Index 96 °F
Dew Point 80 °F
Humidity 90%
Rainfall 0.56 in
Snow Depth Not available.
UV 0 out of 12
Pollen 3.10 out of 12
Air Quality Not available.
Flu Activity Not available.
METAR KNBG 042355Z 21009KT 10SM FEW025TCU SCT150 BKN250 30/26 A2993 RMK AO2 SLP136 TCU VC N CB DSNT E AND SW-W VCSH N T2 SET 60001 T03000261 10306 20267 58002 $

More Conditions Fewer Conditions

10-Day Weather Forecast

×

Almanac

Astronomy

Aug. 04, 2015 Rise Set
Actual Time
Civil Twilight
Nautical Twilight
Astronomical Twilight
Moon
Length of Visible Light
Length of Day
Tomorrow will be .
, % of the Moon is Illuminated

Today's Extremes

State Highs State Lows

Community

WunderPhotos

Upload Photos

1,844,033 photos uploaded!

WunderBlogs® & News

Nearby

Air Quality

  Air Quality AQ Index Pollutant
Not available.

Snow Depth

Station Depth Elevation

Earthquake Activity

City Distance Mag. Time & Date
Minimum magnitude displayed is 2.5.

Coastal Water Temperatures

Place Temperature

Stations

Nearby Weather Stations

Station Location Temp. Windchill Dew Point Humidity Wind Precip. Elev Updated Type